Time;durP1;ratioP1;P1;durP2;ratioP2;P2;SDS_P1;SDS_P2;PMS_P1;PMS_P2;Temp;Humidity;BMP_temperature;BMP_pressure;BME280_temperature;BME280_humidity;BME280_pressure;Samples;Min_cycle;Max_cycle;Signal;HPM_P1;HPM_P2
2021/05/19 00:00:26;;;;;;;16.70;10.88;;;;;;;5.40;89.78;99378.97;5012588;28;20041;-64
2021/05/19 00:02:51;;;;;;;13.00;9.25;;;;;;;5.47;89.79;99377.13;5013586;28;20030;-64
2021/05/19 00:05:16;;;;;;;12.48;9.60;;;;;;;5.56;89.61;99378.53;5012826;28;20037;-64
2021/05/19 00:07:42;;;;;;;13.43;10.70;;;;;;;5.48;89.85;99380.59;5013412;28;20033;-64
2021/05/19 00:10:08;;;;;;;16.60;10.55;;;;;;;5.50;89.51;99378.56;5012686;28;20099;-64
2021/05/19 00:12:34;;;;;;;15.27;8.95;;;;;;;5.56;89.65;99388.34;5013197;28;20030;-64
2021/05/19 00:15:00;;;;;;;12.15;9.65;;;;;;;5.62;89.27;99387.53;5013110;28;20021;-64
2021/05/19 00:17:25;;;;;;;13.60;10.27;;;;;;;5.64;89.63;99385.47;4995394;28;20423;-64
2021/05/19 00:19:52;;;;;;;16.30;12.15;;;;;;;5.78;89.28;99392.41;5013201;28;20033;-64
2021/05/19 00:22:17;;;;;;;12.95;10.30;;;;;;;5.67;89.57;99387.75;5012570;28;20121;-64
2021/05/19 00:24:43;;;;;;;13.10;9.38;;;;;;;5.67;89.57;99385.09;5013108;28;20029;-64
2021/05/19 00:27:08;;;;;;;11.70;8.13;;;;;;;5.69;89.48;99383.03;5012558;28;20045;-64
2021/05/19 00:29:33;;;;;;;13.15;9.85;;;;;;;5.71;89.06;99382.81;5012966;28;20033;-64
2021/05/19 00:31:59;;;;;;;15.65;10.07;;;;;;;5.66;88.89;99382.63;5027846;28;20049;-64
2021/05/19 00:34:24;;;;;;;13.82;9.95;;;;;;;5.68;89.46;99386.69;5012969;28;20025;-64
2021/05/19 00:36:50;;;;;;;13.20;10.13;;;;;;;5.86;88.52;99385.25;5012501;28;20038;-64
2021/05/19 00:39:15;;;;;;;13.48;9.55;;;;;;;5.82;88.76;99382.19;5012930;28;20473;-64
2021/05/19 00:41:41;;;;;;;18.67;10.82;;;;;;;5.81;88.65;99386.66;5012595;28;20030;-64
2021/05/19 00:44:08;;;;;;;14.88;9.95;;;;;;;5.78;89.01;99387.09;5013010;28;20029;-64
2021/05/19 00:46:34;;;;;;;13.13;9.32;;;;;;;5.73;89.33;99383.44;5012457;28;20042;-64
2021/05/19 00:48:59;;;;;;;12.15;8.95;;;;;;;5.76;89.22;99388.31;5012754;28;20029;-64
2021/05/19 00:51:25;;;;;;;16.35;10.13;;;;;;;5.81;89.04;99385.88;5012561;28;20041;-64
2021/05/19 00:53:52;;;;;;;13.10;9.43;;;;;;;5.90;88.71;99383.81;5012864;28;20026;-64
2021/05/19 00:56:17;;;;;;;12.93;9.23;;;;;;;5.97;88.31;99384.66;5012339;28;20112;-64
2021/05/19 00:58:43;;;;;;;13.73;9.85;;;;;;;6.00;87.92;99384.22;5013032;28;20483;-64
2021/05/19 01:01:08;;;;;;;13.75;10.13;;;;;;;6.10;87.76;99384.59;5027291;28;20505;-65
2021/05/19 01:03:34;;;;;;;14.18;9.50;;;;;;;6.06;87.84;99378.06;5016622;28;20025;-64
2021/05/19 01:06:03;;;;;;;10.23;8.63;;;;;;;6.14;87.66;99374.34;5031389;28;20046;-64
2021/05/19 01:11:15;;;;;;;12.13;9.43;;;;;;;6.09;87.98;99382.13;5001291;28;20053;-64
2021/05/19 01:13:42;;;;;;;12.73;8.43;;;;;;;6.06;88.19;99375.41;5016788;28;20030;-64
2021/05/19 01:16:07;;;;;;;12.50;9.40;;;;;;;6.03;88.16;99371.31;4998485;28;20124;-64
2021/05/19 01:18:33;;;;;;;13.85;8.82;;;;;;;6.01;88.03;99372.53;5016538;28;20097;-64
2021/05/19 01:20:58;;;;;;;12.85;8.85;;;;;;;5.99;87.71;99366.59;5016027;28;20034;-64
2021/05/19 01:23:29;;;;;;;11.57;8.38;;;;;;;5.91;88.36;99367.63;5031498;28;20101;-64
2021/05/19 01:25:56;;;;;;;9.82;8.13;;;;;;;5.88;88.26;99359.25;5016066;28;20033;-64
2021/05/19 01:28:22;;;;;;;12.65;9.85;;;;;;;5.77;88.70;99355.41;4998808;28;20109;-64
2021/05/19 01:30:47;;;;;;;12.20;8.43;;;;;;;5.73;88.62;99356.84;5015906;28;20049;-64
2021/05/19 01:33:12;;;;;;;11.80;9.95;;;;;;;5.68;88.76;99360.09;5016340;28;20037;-64
2021/05/19 01:35:38;;;;;;;11.20;8.13;;;;;;;5.57;89.04;99364.22;5015842;28;20447;-64
2021/05/19 01:38:06;;;;;;;13.60;10.43;;;;;;;5.54;89.53;99367.31;5016026;28;20037;-64
2021/05/19 01:40:31;;;;;;;18.15;11.55;;;;;;;5.44;90.38;99364.22;5015659;28;20038;-64
2021/05/19 01:42:56;;;;;;;17.75;12.90;;;;;;;5.38;91.07;99365.88;5015977;28;20033;-64
2021/05/19 01:45:23;;;;;;;18.85;13.52;;;;;;;5.40;91.42;99363.81;5015706;28;20041;-64
2021/05/19 01:47:49;;;;;;;17.20;11.52;;;;;;;5.41;91.94;99361.97;4998280;28;20587;-64
2021/05/19 01:50:20;;;;;;;23.60;12.70;;;;;;;5.45;91.49;99365.06;5015500;28;20071;-64
2021/05/19 01:52:45;;;;;;;18.98;14.80;;;;;;;5.46;91.63;99369.34;5015762;28;20018;-64
2021/05/19 01:55:12;;;;;;;19.77;12.63;;;;;;;5.46;91.86;99364.84;4997783;28;20036;-64
2021/05/19 01:57:37;;;;;;;19.10;13.65;;;;;;;5.54;91.65;99369.13;5015750;28;20030;-64
2021/05/19 02:00:05;;;;;;;16.55;11.85;;;;;;;5.54;91.85;99363.81;5015320;28;20077;-64
2021/05/19 02:02:30;;;;;;;16.50;11.95;;;;;;;5.62;91.66;99361.75;5015518;28;20445;-64
2021/05/19 02:04:56;;;;;;;18.70;13.13;;;;;;;5.59;91.73;99364.00;5015572;28;20041;-64
2021/05/19 02:07:21;;;;;;;21.52;14.13;;;;;;;5.58;92.15;99357.06;5013892;28;20049;-64
2021/05/19 02:09:47;;;;;;;20.08;10.48;;;;;;;5.65;92.32;99368.50;5015127;28;20540;-64
2021/05/19 02:12:13;;;;;;;21.73;13.90;;;;;;;5.65;92.72;99370.34;4997219;28;20484;-64
2021/05/19 02:14:38;;;;;;;18.85;12.90;;;;;;;5.68;92.95;99376.06;5015544;28;20033;-63
2021/05/19 02:17:03;;;;;;;22.30;16.35;;;;;;;5.68;92.74;99370.75;5015082;28;20064;-64
2021/05/19 02:19:29;;;;;;;22.02;14.43;;;;;;;5.69;92.73;99377.72;5015415;28;20083;-63
2021/05/19 02:21:54;;;;;;;20.33;14.20;;;;;;;5.69;92.94;99379.53;5014861;28;20037;-64
2021/05/19 02:24:20;;;;;;;20.65;14.07;;;;;;;5.69;93.06;99385.69;5015329;28;20483;-64
2021/05/19 02:26:46;;;;;;;16.27;11.23;;;;;;;5.70;92.77;99382.00;5014792;28;20042;-63
2021/05/19 02:29:12;;;;;;;24.95;15.40;;;;;;;5.65;93.07;99381.81;5015276;28;20033;-64
2021/05/19 02:31:37;;;;;;;21.88;13.88;;;;;;;5.63;93.31;99394.47;5014673;28;20041;-64
2021/05/19 02:34:03;;;;;;;23.13;15.27;;;;;;;5.61;93.45;99386.69;5013898;28;20076;-64
2021/05/19 02:36:29;;;;;;;21.63;14.40;;;;;;;5.63;93.38;99383.84;5014544;28;20424;-64
2021/05/19 02:38:54;;;;;;;18.10;14.15;;;;;;;5.59;93.51;99387.94;5015043;28;20028;-64
2021/05/19 02:41:20;;;;;;;17.40;13.15;;;;;;;5.56;92.97;99386.50;5014448;28;20547;-64
2021/05/19 02:43:45;;;;;;;17.88;12.23;;;;;;;5.55;92.98;99386.72;5014934;28;20026;-64
2021/05/19 02:46:12;;;;;;;18.40;12.68;;;;;;;5.46;93.31;99387.94;5014514;28;20085;-64
2021/05/19 02:48:39;;;;;;;19.17;11.73;;;;;;;5.53;93.04;99383.44;5014691;28;20029;-64
2021/05/19 02:51:04;;;;;;;17.23;11.27;;;;;;;5.61;92.85;99375.25;5014420;28;20052;-64
2021/05/19 02:53:30;;;;;;;17.40;11.88;;;;;;;5.63;92.69;99375.88;5014897;28;20030;-64
2021/05/19 02:55:55;;;;;;;17.67;12.45;;;;;;;5.66;92.24;99380.75;4996802;28;20053;-64
2021/05/19 02:58:21;;;;;;;17.20;11.95;;;;;;;5.65;92.64;99387.13;4980730;28;20041;-64
2021/05/19 03:00:46;;;;;;;17.67;12.52;;;;;;;5.64;92.56;99382.81;5014203;28;20057;-63
2021/05/19 03:03:11;;;;;;;18.65;13.13;;;;;;;5.66;92.42;99386.09;5014532;28;20030;-64
2021/05/19 03:05:37;;;;;;;18.98;12.70;;;;;;;5.67;92.55;99390.41;5013857;28;20400;-64
2021/05/19 03:08:02;;;;;;;17.48;12.95;;;;;;;5.64;92.48;99385.47;5014598;28;20485;-64
2021/05/19 03:10:28;;;;;;;16.00;11.35;;;;;;;5.70;92.13;99389.16;5012660;28;20396;-64
2021/05/19 03:12:55;;;;;;;17.75;12.57;;;;;;;5.72;92.05;99403.09;4996890;28;20053;-64
2021/05/19 03:15:22;;;;;;;18.33;11.85;;;;;;;5.79;91.81;99401.19;5013882;28;20056;-64
2021/05/19 03:17:47;;;;;;;15.70;11.48;;;;;;;5.81;91.42;99397.31;5014121;28;20077;-63
2021/05/19 03:20:13;;;;;;;13.38;10.52;;;;;;;5.88;90.96;99407.94;5013733;28;20037;-64
2021/05/19 03:22:39;;;;;;;14.30;11.10;;;;;;;5.89;90.92;99408.75;5014433;28;20100;-63
2021/05/19 03:25:05;;;;;;;16.48;11.45;;;;;;;5.89;91.09;99408.75;5012930;28;20465;-64
2021/05/19 03:27:31;;;;;;;18.58;12.05;;;;;;;5.86;91.63;99415.31;5014216;28;20128;-64
2021/05/19 03:29:56;;;;;;;15.90;11.50;;;;;;;5.86;91.15;99412.66;5014212;28;20038;-64
2021/05/19 03:32:22;;;;;;;13.13;10.13;;;;;;;5.93;90.82;99410.00;5013601;28;20448;-64
2021/05/19 03:34:47;;;;;;;13.73;9.75;;;;;;;5.95;90.67;99410.63;5014017;28;20480;-63
2021/05/19 03:37:12;;;;;;;14.15;10.55;;;;;;;5.98;90.21;99412.88;5013490;28;20042;-64
2021/05/19 03:39:38;;;;;;;12.27;8.90;;;;;;;5.99;89.93;99403.84;5014120;28;20037;-63
2021/05/19 03:42:04;;;;;;;14.32;9.70;;;;;;;6.01;89.65;99401.81;5013419;28;20568;-64
2021/05/19 03:44:29;;;;;;;14.80;10.27;;;;;;;6.09;88.97;99406.94;4996300;28;20121;-63
2021/05/19 03:46:55;;;;;;;13.25;9.40;;;;;;;6.13;88.28;99405.47;5013480;28;20038;-64
2021/05/19 03:49:20;;;;;;;14.65;9.30;;;;;;;6.12;88.70;99406.50;5013699;28;20034;-63
2021/05/19 03:51:46;;;;;;;11.25;8.45;;;;;;;6.09;88.73;99401.59;4995897;28;20057;-63
2021/05/19 03:54:11;;;;;;;11.00;9.05;;;;;;;6.14;88.42;99400.97;5013874;28;20077;-63
2021/05/19 03:56:37;;;;;;;13.30;8.40;;;;;;;6.11;88.43;99404.03;5013323;28;20399;-63
2021/05/19 03:59:02;;;;;;;13.80;7.82;;;;;;;6.13;88.61;99415.31;4996023;28;20029;-63
2021/05/19 04:01:28;;;;;;;11.30;7.47;;;;;;;6.14;88.51;99408.94;5013221;28;20037;-63
2021/05/19 04:03:53;;;;;;;10.07;7.22;;;;;;;6.07;88.93;99410.84;5013584;28;20436;-63
2021/05/19 04:06:24;;;;;;;11.65;8.73;;;;;;;6.09;89.02;99411.41;5013327;28;20034;-64
2021/05/19 04:08:49;;;;;;;;;;;;;;;6.08;88.95;99412.44;4980722;28;20069;-63
2021/05/19 04:11:15;;;;;;;12.65;8.30;;;;;;;6.04;89.36;99412.03;5013139;28;20288;-63
2021/05/19 04:13:40;;;;;;;11.27;7.97;;;;;;;6.37;88.24;99416.47;5013502;28;20052;-64
2021/05/19 04:16:06;;;;;;;11.15;8.02;;;;;;;6.55;86.89;99419.25;5012850;28;20080;-63
2021/05/19 04:18:31;;;;;;;14.02;6.47;;;;;;;6.17;88.47;99419.19;4995045;28;20029;-60
2021/05/19 04:20:57;;;;;;;10.57;8.20;;;;;;;6.21;88.41;99423.06;5012144;28;20105;-60
2021/05/19 04:23:25;;;;;;;9.18;6.38;;;;;;;6.34;87.76;99430.19;5012431;28;20381;-60
2021/05/19 04:25:51;;;;;;;9.52;6.60;;;;;;;6.68;86.29;99419.19;5011824;28;20033;-59
2021/05/19 04:28:16;;;;;;;9.80;6.22;;;;;;;7.23;83.98;99428.50;5027673;28;20489;-59
2021/05/19 04:30:42;;;;;;;11.73;6.07;;;;;;;7.99;80.72;99428.28;5012311;28;20048;-60
2021/05/19 04:33:07;;;;;;;6.82;5.80;;;;;;;8.60;77.49;99431.16;5012703;28;20030;-60
2021/05/19 04:35:33;;;;;;;7.07;5.90;;;;;;;9.18;75.35;99430.56;5012466;28;20042;-60
2021/05/19 04:37:59;;;;;;;6.50;5.47;;;;;;;9.17;75.57;99431.63;5011969;28;20440;-60
2021/05/19 04:40:24;;;;;;;7.88;4.78;;;;;;;9.15;74.92;99436.38;5012724;28;20041;-59
2021/05/19 04:42:50;;;;;;;7.80;5.45;;;;;;;9.76;73.32;99438.91;5011776;28;20034;-59
2021/05/19 04:45:15;;;;;;;6.10;4.88;;;;;;;9.87;71.85;99441.63;5012454;28;20080;-60
2021/05/19 04:47:41;;;;;;;8.40;5.20;;;;;;;10.52;70.14;99446.00;5012980;28;20030;-59
2021/05/19 04:50:07;;;;;;;6.40;4.90;;;;;;;9.90;71.41;99440.31;5012686;28;20029;-60
2021/05/19 04:52:33;;;;;;;6.10;4.97;;;;;;;9.77;72.23;99443.25;5012946;28;20109;-59
2021/05/19 04:55:00;;;;;;;7.30;5.32;;;;;;;11.32;66.76;99460.41;5012952;28;20037;-59
2021/05/19 04:57:26;;;;;;;6.72;4.72;;;;;;;10.72;68.42;99463.56;5012572;28;20128;-59
2021/05/19 04:59:51;;;;;;;9.68;5.15;;;;;;;10.80;67.63;99460.50;5013143;28;20026;-59
2021/05/19 05:02:17;;;;;;;6.40;4.60;;;;;;;9.70;71.69;99457.53;4995081;28;20555;-60
2021/05/19 05:04:42;;;;;;;9.20;4.65;;;;;;;10.39;70.42;99465.03;5011078;28;20038;-59
2021/05/19 05:07:08;;;;;;;7.70;4.82;;;;;;;11.00;68.39;99471.59;5012608;28;20046;-59
2021/05/19 05:09:33;;;;;;;6.90;5.10;;;;;;;11.30;65.71;99472.44;5012736;28;20489;-59
2021/05/19 05:11:59;;;;;;;6.45;4.53;;;;;;;13.97;57.01;99469.38;5012625;28;20513;-60
2021/05/19 05:14:25;;;;;;;5.80;4.30;;;;;;;13.48;59.27;99469.50;5012917;28;20073;-61
2021/05/19 05:16:50;;;;;;;5.95;4.80;;;;;;;11.49;66.41;99470.34;4994832;28;20092;-58
2021/05/19 05:19:16;;;;;;;6.40;5.07;;;;;;;11.80;63.46;99475.16;5013059;28;20030;-60
2021/05/19 05:21:41;;;;;;;7.53;4.40;;;;;;;11.20;65.57;99471.19;5012291;28;20038;-60
2021/05/19 05:24:07;;;;;;;7.18;5.07;;;;;;;12.62;61.80;99470.16;5012805;28;20109;-61
2021/05/19 05:26:32;;;;;;;7.63;5.15;;;;;;;12.13;62.75;99470.88;5012530;28;20069;-59
2021/05/19 05:28:58;;;;;;;7.78;5.80;;;;;;;13.16;60.33;99472.94;5012649;28;20024;-58
2021/05/19 05:31:23;;;;;;;5.68;4.70;;;;;;;14.13;56.57;99473.00;5012567;28;20057;-60
2021/05/19 05:33:49;;;;;;;8.95;5.03;;;;;;;14.41;55.27;99471.81;5012923;28;20026;-60
2021/05/19 05:36:14;;;;;;;6.65;5.35;;;;;;;12.70;61.24;99472.41;5012451;28;20034;-60
2021/05/19 05:38:40;;;;;;;7.40;5.55;;;;;;;14.35;54.39;99483.63;5012903;28;20030;-60
2021/05/19 05:41:05;;;;;;;8.35;5.22;;;;;;;14.26;55.37;99477.91;5012292;28;20405;-58
2021/05/19 05:43:31;;;;;;;8.75;5.47;;;;;;;14.22;55.01;99484.91;5011541;28;20468;-60
2021/05/19 05:45:56;;;;;;;7.43;5.13;;;;;;;14.41;54.86;99480.69;5011071;28;20041;-58
2021/05/19 05:48:22;;;;;;;9.80;5.65;;;;;;;14.05;56.48;99476.97;5014620;28;20034;-58
2021/05/19 05:50:47;;;;;;;7.60;5.65;;;;;;;11.02;64.33;99479.44;5016013;28;20038;-60
2021/05/19 05:53:12;;;;;;;10.57;6.25;;;;;;;10.33;68.57;99476.66;5016135;28;20029;-60
2021/05/19 05:55:38;;;;;;;10.65;6.45;;;;;;;11.10;66.15;99491.66;5015859;28;20042;-60
2021/05/19 05:58:03;;;;;;;7.65;5.82;;;;;;;11.96;63.09;99494.25;5016088;28;20084;-58
2021/05/19 06:00:29;;;;;;;7.78;6.03;;;;;;;14.03;56.33;99490.72;5015667;28;20030;-58
2021/05/19 06:02:54;;;;;;;8.88;5.88;;;;;;;14.98;54.12;99495.28;5016007;28;20056;-59
2021/05/19 06:05:20;;;;;;;8.02;5.88;;;;;;;12.98;61.12;99484.88;5015483;28;20062;-58
2021/05/19 06:07:45;;;;;;;7.95;6.25;;;;;;;12.68;60.81;99491.50;5014731;28;20031;-59
2021/05/19 06:10:11;;;;;;;8.93;6.63;;;;;;;14.29;56.29;99496.25;5015344;28;20045;-59
2021/05/19 06:12:37;;;;;;;10.82;5.88;;;;;;;17.84;46.39;99493.06;5015446;28;20495;-59
2021/05/19 06:15:03;;;;;;;7.05;5.38;;;;;;;17.26;45.99;99491.00;5015325;28;20030;-59
2021/05/19 06:17:29;;;;;;;7.60;5.85;;;;;;;15.59;51.43;99499.19;5015797;28;20026;-59
2021/05/19 06:19:54;;;;;;;9.07;5.80;;;;;;;13.63;55.93;99490.38;4998224;28;20461;-59
2021/05/19 06:22:20;;;;;;;8.32;6.18;;;;;;;15.23;52.23;99508.03;5015171;28;20038;-59
2021/05/19 06:24:45;;;;;;;9.73;6.05;;;;;;;17.04;47.69;99508.44;5015562;28;20090;-59
2021/05/19 06:27:11;;;;;;;7.60;5.80;;;;;;;17.21;46.76;99507.28;5015018;28;20042;-59
2021/05/19 06:29:37;;;;;;;9.70;6.13;;;;;;;17.09;47.97;99507.59;5014284;28;20034;-59
2021/05/19 06:32:03;;;;;;;6.93;5.78;;;;;;;16.28;48.67;99508.69;5015006;28;20042;-59
2021/05/19 06:34:28;;;;;;;9.85;6.60;;;;;;;14.91;52.50;99513.63;5015473;28;20381;-59
2021/05/19 06:36:53;;;;;;;7.72;5.93;;;;;;;18.03;45.24;99512.97;5014895;28;20038;-59
2021/05/19 06:39:21;;;;;;;30.88;8.52;;;;;;;17.63;45.21;99511.38;4997898;28;20026;-59
2021/05/19 06:41:48;;;;;;;8.57;5.95;;;;;;;15.14;53.05;99504.22;5014931;28;20038;-59
2021/05/19 06:44:16;;;;;;;10.90;5.53;;;;;;;17.99;46.71;99505.69;5014102;28;20064;-59
2021/05/19 06:46:42;;;;;;;8.25;5.55;;;;;;;16.57;49.04;99509.69;5014676;28;20117;-59
2021/05/19 06:49:07;;;;;;;7.63;5.32;;;;;;;18.15;44.58;99517.22;5015372;28;20026;-59
2021/05/19 06:51:33;;;;;;;6.65;5.00;;;;;;;16.19;49.86;99508.41;5014810;28;20407;-59
2021/05/19 06:53:58;;;;;;;8.07;5.40;;;;;;;16.80;50.26;99524.53;5015181;28;20392;-59
2021/05/19 06:56:25;;;;;;;8.95;5.57;;;;;;;17.17;49.13;99517.88;5014179;28;20100;-59
2021/05/19 06:58:50;;;;;;;9.73;4.82;;;;;;;21.13;40.31;99520.66;5014439;28;20029;-59
2021/05/19 07:01:15;;;;;;;7.93;5.47;;;;;;;15.90;51.20;99527.06;5014460;28;20201;-59
2021/05/19 07:03:41;;;;;;;11.20;5.18;;;;;;;19.10;44.89;99524.59;5003679;28;20033;-59
2021/05/19 07:06:06;;;;;;;6.20;4.65;;;;;;;19.29;44.56;99518.38;5014581;28;20477;-59
2021/05/19 07:08:32;;;;;;;8.70;5.18;;;;;;;17.92;46.21;99521.47;5014509;28;20100;-59
2021/05/19 07:10:57;;;;;;;6.60;4.95;;;;;;;15.83;52.45;99523.84;5014258;28;20121;-59
2021/05/19 07:13:27;;;;;;;8.55;4.90;;;;;;;17.14;48.67;99523.81;5014578;28;20030;-59
2021/05/19 07:15:53;;;;;;;6.25;4.65;;;;;;;18.03;46.76;99534.66;5013973;28;20492;-59
2021/05/19 07:18:18;;;;;;;8.38;5.03;;;;;;;15.01;52.98;99527.13;5014640;28;20067;-59
2021/05/19 07:20:44;;;;;;;8.00;5.03;;;;;;;17.17;49.91;99526.00;5014309;28;20512;-59
2021/05/19 07:23:09;;;;;;;25.38;7.03;;;;;;;16.04;53.23;99530.84;5014600;28;20087;-59
2021/05/19 07:25:35;;;;;;;39.08;7.82;;;;;;;17.61;48.34;99529.78;5013999;28;20448;-59
2021/05/19 07:28:01;;;;;;;20.33;5.60;;;;;;;16.44;50.34;99542.72;5014287;28;20037;-59
2021/05/19 07:30:27;;;;;;;8.60;5.40;;;;;;;15.31;53.21;99531.03;5014090;28;20049;-59
2021/05/19 07:32:52;;;;;;;7.38;4.97;;;;;;;17.11;49.16;99540.63;5014560;28;20380;-59
2021/05/19 07:35:18;;;;;;;12.25;6.55;;;;;;;15.78;52.65;99540.06;4996376;28;20385;-59
2021/05/19 07:37:43;;;;;;;8.55;5.05;;;;;;;13.61;59.58;99536.44;5014148;28;20029;-58
2021/05/19 07:40:09;;;;;;;8.85;5.55;;;;;;;12.30;63.06;99535.31;5013916;28;20037;-59
2021/05/19 07:42:35;;;;;;;7.78;5.35;;;;;;;11.93;65.02;99533.16;5013982;28;20022;-59
2021/05/19 07:45:00;;;;;;;9.82;6.10;;;;;;;11.19;67.55;99538.50;5014171;28;20364;-59
2021/05/19 07:47:26;;;;;;;12.57;5.82;;;;;;;12.73;63.14;99548.03;5013908;28;20042;-59
2021/05/19 07:49:52;;;;;;;14.23;5.40;;;;;;;16.06;52.71;99544.91;5014192;28;20017;-59
2021/05/19 07:52:18;;;;;;;6.95;4.70;;;;;;;15.61;52.70;99541.06;4996112;28;20045;-59
2021/05/19 07:54:46;;;;;;;7.75;4.82;;;;;;;14.76;54.96;99545.94;4996355;28;20026;-59
2021/05/19 07:59:39;;;;;;;6.85;4.25;;;;;;;14.75;54.09;99541.59;5014100;28;20057;-60
2021/05/19 08:02:05;;;;;;;8.05;4.50;;;;;;;13.62;58.46;99548.00;5013433;28;20038;-60
2021/05/19 08:04:32;;;;;;;9.57;4.63;;;;;;;13.48;58.67;99537.66;5013865;28;20441;-59
2021/05/19 08:06:58;;;;;;;7.13;4.25;;;;;;;14.17;57.26;99560.34;5013089;28;20034;-60
2021/05/19 08:09:23;;;;;;;9.75;4.88;;;;;;;13.41;59.57;99544.31;5013542;28;20064;-59
2021/05/19 08:11:49;;;;;;;10.27;4.82;;;;;;;13.77;59.47;99540.06;5012944;28;20370;-59
2021/05/19 08:14:15;;;;;;;7.40;3.92;;;;;;;12.94;61.53;99542.91;5013738;28;20022;-60
2021/05/19 08:16:40;;;;;;;7.75;4.25;;;;;;;14.83;54.27;99546.50;5012892;28;20049;-60
2021/05/19 08:19:06;;;;;;;6.82;4.65;;;;;;;13.28;58.98;99545.47;5013655;28;20026;-60
2021/05/19 08:21:31;;;;;;;9.10;5.05;;;;;;;11.15;67.28;99543.50;5012777;28;20478;-60
2021/05/19 08:23:57;;;;;;;8.35;4.80;;;;;;;12.57;64.67;99540.81;5013487;28;20025;-60
2021/05/19 08:26:23;;;;;;;7.72;4.32;;;;;;;14.48;57.07;99525.47;5012902;28;20374;-60
2021/05/19 08:28:49;;;;;;;6.68;4.40;;;;;;;12.61;62.49;99528.50;5013488;28;20107;-59
2021/05/19 08:31:16;;;;;;;7.72;4.50;;;;;;;14.18;58.02;99521.53;4995657;28;20489;-60
2021/05/19 08:33:41;;;;;;;8.10;4.28;;;;;;;13.63;59.82;99528.91;5013466;28;20026;-60
2021/05/19 08:36:07;;;;;;;13.27;4.40;;;;;;;12.83;63.86;99531.22;5013043;28;20049;-60
2021/05/19 08:38:35;;;;;;;9.52;4.10;;;;;;;12.39;63.35;99524.97;5013152;28;20436;-59
2021/05/19 08:41:06;;;;;;;5.53;3.63;;;;;;;11.88;64.91;99514.25;5012736;28;20040;-59
2021/05/19 08:43:31;;;;;;;9.77;4.07;;;;;;;11.90;66.27;99520.19;5013369;28;20068;-60
2021/05/19 08:45:57;;;;;;;8.90;4.68;;;;;;;13.16;61.39;99511.44;5012731;28;20034;-59
2021/05/19 08:48:23;;;;;;;7.82;4.30;;;;;;;13.28;61.06;99515.88;5012118;28;20034;-59
2021/05/19 08:50:49;;;;;;;7.18;4.07;;;;;;;14.47;58.00;99511.19;5012824;28;20038;-59
2021/05/19 08:53:14;;;;;;;6.55;3.40;;;;;;;14.72;56.03;99512.44;5013334;28;20479;-61
2021/05/19 08:55:39;;;;;;;5.95;3.28;;;;;;;14.74;58.03;99516.50;4995254;28;20041;-59
2021/05/19 08:58:05;;;;;;;6.50;3.38;;;;;;;13.89;58.70;99511.06;5013103;28;20495;-59
2021/05/19 09:00:33;;;;;;;12.55;3.95;;;;;;;15.21;55.57;99515.59;5012819;28;20053;-60
2021/05/19 09:03:17;;;;;;;5.15;3.28;;;;;;;12.92;60.29;99515.44;5013144;28;20113;-60
2021/05/19 09:05:48;;;;;;;5.70;3.60;;;;;;;13.61;59.98;99524.84;5012721;28;20485;-60
2021/05/19 09:08:18;;;;;;;9.68;3.58;;;;;;;14.70;57.21;99514.59;5012826;28;20034;-60
2021/05/19 09:10:58;;;;;;;8.60;3.50;;;;;;;14.54;58.84;99505.59;5012836;28;20058;-60
2021/05/19 09:13:37;;;;;;;9.07;3.30;;;;;;;15.11;55.11;99499.38;5013174;28;20097;-60
2021/05/19 09:16:04;;;;;;;5.97;2.80;;;;;;;16.31;53.77;99500.81;4995090;28;20057;-60
2021/05/19 09:18:45;;;;;;;5.85;2.72;;;;;;;15.01;55.43;99491.25;5012950;28;20125;-60
2021/05/19 09:21:11;;;;;;;7.57;2.72;;;;;;;15.69;55.81;99488.41;5012352;28;20073;-60
2021/05/19 09:23:50;;;;;;;8.93;2.70;;;;;;;17.57;49.17;99485.38;5015328;28;20026;-59
2021/05/19 09:26:16;;;;;;;5.97;3.08;;;;;;;15.81;53.25;99480.06;5015841;28;20496;-59
2021/05/19 09:28:41;;;;;;;5.80;2.53;;;;;;;13.15;59.22;99477.53;5016554;28;20022;-59
2021/05/19 09:31:21;;;;;;;4.90;2.80;;;;;;;13.09;59.64;99481.22;5015199;28;20030;-59
2021/05/19 09:33:48;;;;;;;8.30;2.90;;;;;;;13.20;60.64;99473.25;5016731;28;20026;-59
2021/05/19 09:36:21;;;;;;;7.57;2.65;;;;;;;12.81;58.97;99473.38;5016019;28;20056;-59
2021/05/19 09:38:48;;;;;;;6.85;2.50;;;;;;;15.08;53.70;99472.91;5016500;28;20072;-59
2021/05/19 09:41:21;;;;;;;7.80;2.50;;;;;;;15.24;54.89;99471.84;5015983;28;20057;-59
2021/05/19 09:43:47;;;;;;;6.82;2.35;;;;;;;14.53;54.65;99467.03;5015432;28;20072;-59
2021/05/19 09:46:18;;;;;;;4.57;2.47;;;;;;;14.10;56.69;99460.81;5015933;28;20034;-59
2021/05/19 09:48:44;;;;;;;9.80;2.58;;;;;;;13.42;57.66;99463.25;5016386;28;20392;-59
2021/05/19 09:51:10;;;;;;;12.20;2.72;;;;;;;12.69;60.67;99460.84;5015902;28;20065;-59
2021/05/19 09:53:35;;;;;;;5.30;2.40;;;;;;;12.55;60.74;99464.97;5016210;28;20018;-59
2021/05/19 09:56:01;;;;;;;4.90;2.47;;;;;;;13.54;57.99;99463.91;4998029;28;20120;-59
2021/05/19 09:58:36;;;;;;;5.22;2.30;;;;;;;12.76;61.70;99454.47;5016019;28;20068;-59
2021/05/19 10:01:01;;;;;;;7.68;2.88;;;;;;;13.99;57.50;99462.66;5015695;28;20037;-59
2021/05/19 10:03:27;;;;;;;6.28;2.88;;;;;;;12.92;60.53;99456.25;5016035;28;20038;-59
2021/05/19 10:08:36;;;;;;;4.55;2.10;;;;;;;13.51;59.32;99467.13;5000900;28;20061;-59
2021/05/19 10:11:04;;;;;;;8.73;2.63;;;;;;;14.12;57.08;99465.97;5015585;28;20425;-59
2021/05/19 10:13:30;;;;;;;9.90;2.30;;;;;;;13.82;56.86;99464.66;5015797;28;20480;-59
2021/05/19 10:15:57;;;;;;;5.13;2.63;;;;;;;14.06;57.19;99459.72;4997974;28;20527;-59
2021/05/19 10:18:23;;;;;;;8.30;2.55;;;;;;;13.98;57.36;99461.03;5014285;28;20072;-60
2021/05/19 10:20:52;;;;;;;6.32;2.30;;;;;;;13.52;58.48;99457.97;4997098;28;20034;-58
2021/05/19 10:23:34;;;;;;;4.60;2.27;;;;;;;13.53;58.55;99462.31;5015622;28;20568;-61
2021/05/19 10:26:13;;;;;;;8.45;2.47;;;;;;;13.71;58.79;99457.59;5015128;28;20409;-60
2021/05/19 10:28:39;;;;;;;6.35;2.33;;;;;;;13.51;58.16;99463.63;5015485;28;20053;-58
2021/05/19 10:31:30;;;;;;;6.28;2.33;;;;;;;13.94;58.05;99457.22;5015004;28;20061;-59
2021/05/19 10:33:57;;;;;;;4.50;2.33;;;;;;;14.14;55.94;99458.44;5015477;28;20025;-59
2021/05/19 10:36:29;;;;;;;5.50;2.35;;;;;;;14.39;54.64;99455.06;5014972;28;20125;-59
2021/05/19 10:39:09;;;;;;;6.28;2.33;;;;;;;14.67;54.84;99445.78;5015238;28;20076;-59
2021/05/19 10:41:39;;;;;;;6.63;2.55;;;;;;;14.05;55.52;99446.50;5014153;28;20041;-59
2021/05/19 10:44:05;;;;;;;5.63;2.28;;;;;;;14.96;54.87;99446.16;5015477;28;20428;-59
2021/05/19 10:47:05;;;;;;;6.80;2.60;;;;;;;15.52;53.66;99450.81;5014876;28;20060;-59
2021/05/19 10:49:42;;;;;;;6.40;2.00;;;;;;;15.50;52.07;99447.56;5015358;28;20033;-59
2021/05/19 10:57:45;;;;;;;6.57;1.90;;;;;;;15.00;50.86;99449.97;5014780;28;20053;-58
2021/05/19 11:00:22;;;;;;;4.68;2.10;;;;;;;15.63;50.53;99452.47;5014363;28;20029;-59
2021/05/19 11:02:57;;;;;;;5.40;2.22;;;;;;;15.39;51.45;99456.75;5015130;28;20115;-59
2021/05/19 11:05:41;;;;;;;6.43;1.88;;;;;;;15.34;49.74;99464.88;5014524;28;20077;-58
2021/05/19 11:08:13;;;;;;;3.40;1.30;;;;;;;14.24;53.12;99469.28;5014592;28;20052;-58
2021/05/19 11:10:40;;;;;;;2.45;1.05;;;;;;;12.48;61.12;99486.66;5014500;28;20053;-60
2021/05/19 11:13:06;;;;;;;1.42;1.02;;;;;;;11.82;65.79;99482.97;5015013;28;20026;-60
2021/05/19 11:15:58;;;;;;;2.92;0.95;;;;;;;11.36;68.74;99493.75;5013097;28;20061;-59
2021/05/19 11:21:14;;;;;;;1.95;1.10;;;;;;;10.89;71.68;99499.28;5013975;28;20044;-61
2021/05/19 11:23:39;;;;;;;1.58;0.95;;;;;;;11.15;72.59;99497.09;5014487;28;20026;-59
2021/05/19 11:26:12;;;;;;;2.75;1.15;;;;;;;10.88;71.27;99497.66;5014220;28;20045;-59
2021/05/19 11:28:39;;;;;;;1.48;0.90;;;;;;;10.70;73.37;99493.28;5014373;28;20053;-59
2021/05/19 11:31:12;;;;;;;1.88;1.15;;;;;;;10.71;72.24;99478.84;5014034;28;20034;-59
2021/05/19 11:33:51;;;;;;;1.52;1.40;;;;;;;10.50;72.68;99472.22;5014095;28;20425;-59
2021/05/19 11:36:42;;;;;;;1.70;0.90;;;;;;;10.41;73.78;99467.44;5013940;28;20042;-59
2021/05/19 11:39:25;;;;;;;4.63;1.30;;;;;;;10.83;70.70;99468.06;4997245;28;20030;-59
2021/05/19 11:42:10;;;;;;;2.58;1.08;;;;;;;11.15;69.63;99467.59;5013715;28;20185;-59
2021/05/19 11:44:40;;;;;;;1.60;0.75;;;;;;;12.07;66.17;99461.91;5014405;28;20108;-59
2021/05/19 11:47:06;;;;;;;1.25;1.10;;;;;;;12.82;64.37;99459.66;5012856;28;20041;-59